sensor_id;sensor_type;location;lat;lon;timestamp;P1;durP1;ratioP1;P2;durP2;ratioP2
10637;SDS011;47007;49.252;8.904;2022-08-03T00:01:29;1.30;;;1.20;;
10637;SDS011;47007;49.252;8.904;2022-08-03T00:03:56;1.23;;;1.17;;
10637;SDS011;47007;49.252;8.904;2022-08-03T00:06:22;1.08;;;1.08;;
10637;SDS011;47007;49.252;8.904;2022-08-03T00:08:49;1.23;;;1.10;;
10637;SDS011;47007;49.252;8.904;2022-08-03T00:11:16;1.48;;;1.40;;
10637;SDS011;47007;49.252;8.904;2022-08-03T00:13:43;1.50;;;1.40;;
10637;SDS011;47007;49.252;8.904;2022-08-03T00:16:10;0.90;;;0.90;;
10637;SDS011;47007;49.252;8.904;2022-08-03T00:18:37;1.55;;;1.45;;
10637;SDS011;47007;49.252;8.904;2022-08-03T00:21:03;1.10;;;1.00;;
10637;SDS011;47007;49.252;8.904;2022-08-03T00:23:31;1.73;;;1.35;;
10637;SDS011;47007;49.252;8.904;2022-08-03T00:26:18;1.20;;;1.13;;
10637;SDS011;47007;49.252;8.904;2022-08-03T00:28:45;0.98;;;0.98;;
10637;SDS011;47007;49.252;8.904;2022-08-03T00:31:12;1.40;;;1.30;;
10637;SDS011;47007;49.252;8.904;2022-08-03T00:33:39;1.48;;;1.38;;
10637;SDS011;47007;49.252;8.904;2022-08-03T00:36:24;1.65;;;1.55;;
10637;SDS011;47007;49.252;8.904;2022-08-03T00:38:51;2.15;;;1.80;;
10637;SDS011;47007;49.252;8.904;2022-08-03T00:41:18;1.63;;;1.52;;
10637;SDS011;47007;49.252;8.904;2022-08-03T00:43:45;2.67;;;1.48;;
10637;SDS011;47007;49.252;8.904;2022-08-03T00:46:12;1.30;;;1.10;;
10637;SDS011;47007;49.252;8.904;2022-08-03T00:48:47;1.08;;;1.08;;
10637;SDS011;47007;49.252;8.904;2022-08-03T00:51:17;1.67;;;1.38;;
10637;SDS011;47007;49.252;8.904;2022-08-03T00:53:46;1.27;;;1.20;;
10637;SDS011;47007;49.252;8.904;2022-08-03T00:56:13;1.55;;;1.23;;
10637;SDS011;47007;49.252;8.904;2022-08-03T00:58:40;1.73;;;1.40;;
10637;SDS011;47007;49.252;8.904;2022-08-03T01:01:10;1.98;;;1.50;;
10637;SDS011;47007;49.252;8.904;2022-08-03T01:03:38;1.42;;;1.10;;
10637;SDS011;47007;49.252;8.904;2022-08-03T01:06:19;2.35;;;1.30;;
10637;SDS011;47007;49.252;8.904;2022-08-03T01:09:11;1.30;;;1.30;;
10637;SDS011;47007;49.252;8.904;2022-08-03T01:11:50;2.17;;;1.33;;
10637;SDS011;47007;49.252;8.904;2022-08-03T01:17:30;1.40;;;1.30;;
10637;SDS011;47007;49.252;8.904;2022-08-03T01:20:08;1.30;;;1.30;;
10637;SDS011;47007;49.252;8.904;2022-08-03T01:25:54;1.50;;;1.40;;
10637;SDS011;47007;49.252;8.904;2022-08-03T01:31:36;1.85;;;1.75;;
10637;SDS011;47007;49.252;8.904;2022-08-03T01:34:33;1.50;;;1.40;;
10637;SDS011;47007;49.252;8.904;2022-08-03T01:37:04;1.85;;;1.48;;
10637;SDS011;47007;49.252;8.904;2022-08-03T01:39:34;2.38;;;1.30;;
10637;SDS011;47007;49.252;8.904;2022-08-03T01:42:06;4.40;;;1.38;;
10637;SDS011;47007;49.252;8.904;2022-08-03T01:44:37;1.52;;;1.42;;
10637;SDS011;47007;49.252;8.904;2022-08-03T01:47:06;1.85;;;1.73;;
10637;SDS011;47007;49.252;8.904;2022-08-03T01:49:38;1.42;;;1.42;;
10637;SDS011;47007;49.252;8.904;2022-08-03T01:52:09;1.83;;;1.70;;
10637;SDS011;47007;49.252;8.904;2022-08-03T01:54:41;1.73;;;1.63;;
10637;SDS011;47007;49.252;8.904;2022-08-03T01:57:10;1.30;;;1.30;;
10637;SDS011;47007;49.252;8.904;2022-08-03T01:59:39;2.25;;;1.42;;
10637;SDS011;47007;49.252;8.904;2022-08-03T02:02:09;1.70;;;1.45;;
10637;SDS011;47007;49.252;8.904;2022-08-03T02:04:59;2.15;;;1.40;;
10637;SDS011;47007;49.252;8.904;2022-08-03T02:07:26;1.50;;;1.50;;
10637;SDS011;47007;49.252;8.904;2022-08-03T02:09:55;1.50;;;1.40;;
10637;SDS011;47007;49.252;8.904;2022-08-03T02:12:24;1.90;;;1.70;;
10637;SDS011;47007;49.252;8.904;2022-08-03T02:14:53;1.75;;;1.60;;
10637;SDS011;47007;49.252;8.904;2022-08-03T02:17:22;3.10;;;1.73;;
10637;SDS011;47007;49.252;8.904;2022-08-03T02:20:06;2.10;;;1.80;;
10637;SDS011;47007;49.252;8.904;2022-08-03T02:22:38;2.28;;;1.60;;
10637;SDS011;47007;49.252;8.904;2022-08-03T02:25:07;1.70;;;1.60;;
10637;SDS011;47007;49.252;8.904;2022-08-03T02:27:35;1.77;;;1.67;;
10637;SDS011;47007;49.252;8.904;2022-08-03T02:30:09;2.45;;;1.60;;
10637;SDS011;47007;49.252;8.904;2022-08-03T02:32:38;1.67;;;1.60;;
10637;SDS011;47007;49.252;8.904;2022-08-03T02:35:08;2.13;;;1.50;;
10637;SDS011;47007;49.252;8.904;2022-08-03T02:37:41;1.70;;;1.60;;
10637;SDS011;47007;49.252;8.904;2022-08-03T02:40:15;1.70;;;1.60;;
10637;SDS011;47007;49.252;8.904;2022-08-03T02:42:44;1.58;;;1.48;;
10637;SDS011;47007;49.252;8.904;2022-08-03T02:45:12;1.70;;;1.60;;
10637;SDS011;47007;49.252;8.904;2022-08-03T02:47:41;1.90;;;1.80;;
10637;SDS011;47007;49.252;8.904;2022-08-03T02:50:20;1.40;;;1.30;;
10637;SDS011;47007;49.252;8.904;2022-08-03T02:52:50;1.73;;;1.65;;
10637;SDS011;47007;49.252;8.904;2022-08-03T02:55:18;1.90;;;1.80;;
10637;SDS011;47007;49.252;8.904;2022-08-03T02:57:47;1.55;;;1.45;;
10637;SDS011;47007;49.252;8.904;2022-08-03T03:00:15;1.90;;;1.80;;
10637;SDS011;47007;49.252;8.904;2022-08-03T03:02:54;1.85;;;1.70;;
10637;SDS011;47007;49.252;8.904;2022-08-03T03:05:23;1.90;;;1.80;;
10637;SDS011;47007;49.252;8.904;2022-08-03T03:08:11;2.13;;;1.73;;
10637;SDS011;47007;49.252;8.904;2022-08-03T03:10:46;1.77;;;1.58;;
10637;SDS011;47007;49.252;8.904;2022-08-03T03:13:18;1.90;;;1.80;;
10637;SDS011;47007;49.252;8.904;2022-08-03T03:15:47;1.70;;;1.60;;
10637;SDS011;47007;49.252;8.904;2022-08-03T03:18:15;2.10;;;1.90;;
10637;SDS011;47007;49.252;8.904;2022-08-03T03:20:48;2.50;;;1.95;;
10637;SDS011;47007;49.252;8.904;2022-08-03T03:23:15;3.17;;;2.20;;
10637;SDS011;47007;49.252;8.904;2022-08-03T03:25:43;2.22;;;2.13;;
10637;SDS011;47007;49.252;8.904;2022-08-03T03:28:12;2.08;;;1.63;;
10637;SDS011;47007;49.252;8.904;2022-08-03T03:30:39;1.80;;;1.70;;
10637;SDS011;47007;49.252;8.904;2022-08-03T03:33:05;1.63;;;1.52;;
10637;SDS011;47007;49.252;8.904;2022-08-03T03:35:32;1.73;;;1.63;;
10637;SDS011;47007;49.252;8.904;2022-08-03T03:38:05;2.38;;;1.80;;
10637;SDS011;47007;49.252;8.904;2022-08-03T03:40:33;2.28;;;1.92;;
10637;SDS011;47007;49.252;8.904;2022-08-03T03:43:01;2.20;;;2.10;;
10637;SDS011;47007;49.252;8.904;2022-08-03T03:45:29;2.20;;;2.00;;
10637;SDS011;47007;49.252;8.904;2022-08-03T03:47:58;1.75;;;1.65;;
10637;SDS011;47007;49.252;8.904;2022-08-03T03:50:25;1.80;;;1.70;;
10637;SDS011;47007;49.252;8.904;2022-08-03T03:52:53;1.52;;;1.52;;
10637;SDS011;47007;49.252;8.904;2022-08-03T03:55:20;2.03;;;1.70;;
10637;SDS011;47007;49.252;8.904;2022-08-03T03:57:46;1.67;;;1.58;;
10637;SDS011;47007;49.252;8.904;2022-08-03T04:00:13;1.80;;;1.70;;
10637;SDS011;47007;49.252;8.904;2022-08-03T04:02:42;1.95;;;1.50;;
10637;SDS011;47007;49.252;8.904;2022-08-03T04:05:09;2.35;;;2.25;;
10637;SDS011;47007;49.252;8.904;2022-08-03T04:08:02;2.13;;;2.03;;
10637;SDS011;47007;49.252;8.904;2022-08-03T04:16:44;1.83;;;1.70;;
10637;SDS011;47007;49.252;8.904;2022-08-03T04:19:16;2.17;;;2.03;;
10637;SDS011;47007;49.252;8.904;2022-08-03T04:21:49;1.90;;;1.80;;
10637;SDS011;47007;49.252;8.904;2022-08-03T04:24:22;2.85;;;2.17;;
10637;SDS011;47007;49.252;8.904;2022-08-03T04:26:52;3.65;;;2.05;;
10637;SDS011;47007;49.252;8.904;2022-08-03T04:29:21;2.15;;;2.05;;
10637;SDS011;47007;49.252;8.904;2022-08-03T04:31:49;2.08;;;1.98;;
10637;SDS011;47007;49.252;8.904;2022-08-03T04:34:17;1.98;;;1.88;;
10637;SDS011;47007;49.252;8.904;2022-08-03T04:36:46;2.47;;;2.28;;
10637;SDS011;47007;49.252;8.904;2022-08-03T04:39:17;2.33;;;2.00;;
10637;SDS011;47007;49.252;8.904;2022-08-03T04:41:48;2.17;;;2.05;;
10637;SDS011;47007;49.252;8.904;2022-08-03T04:44:37;2.10;;;2.00;;
10637;SDS011;47007;49.252;8.904;2022-08-03T04:47:07;2.10;;;2.00;;
10637;SDS011;47007;49.252;8.904;2022-08-03T04:49:37;2.22;;;2.10;;
10637;SDS011;47007;49.252;8.904;2022-08-03T04:52:04;4.45;;;2.63;;
10637;SDS011;47007;49.252;8.904;2022-08-03T04:54:40;1.65;;;1.55;;
10637;SDS011;47007;49.252;8.904;2022-08-03T04:57:16;4.20;;;2.30;;
10637;SDS011;47007;49.252;8.904;2022-08-03T04:59:52;4.18;;;2.05;;
10637;SDS011;47007;49.252;8.904;2022-08-03T05:02:29;2.00;;;1.90;;
10637;SDS011;47007;49.252;8.904;2022-08-03T05:04:57;3.22;;;1.73;;
10637;SDS011;47007;49.252;8.904;2022-08-03T05:07:24;1.90;;;1.80;;
10637;SDS011;47007;49.252;8.904;2022-08-03T05:09:51;2.45;;;2.17;;
10637;SDS011;47007;49.252;8.904;2022-08-03T05:12:28;2.10;;;2.00;;
10637;SDS011;47007;49.252;8.904;2022-08-03T05:14:58;3.25;;;2.85;;
10637;SDS011;47007;49.252;8.904;2022-08-03T05:17:26;2.75;;;2.55;;
10637;SDS011;47007;49.252;8.904;2022-08-03T05:19:53;2.97;;;2.72;;
10637;SDS011;47007;49.252;8.904;2022-08-03T05:22:20;2.90;;;2.63;;
10637;SDS011;47007;49.252;8.904;2022-08-03T05:24:47;2.00;;;1.90;;
10637;SDS011;47007;49.252;8.904;2022-08-03T05:27:14;2.70;;;2.50;;
10637;SDS011;47007;49.252;8.904;2022-08-03T05:29:47;4.80;;;3.00;;
10637;SDS011;47007;49.252;8.904;2022-08-03T05:32:15;2.60;;;2.40;;
10637;SDS011;47007;49.252;8.904;2022-08-03T05:34:43;3.08;;;2.75;;
10637;SDS011;47007;49.252;8.904;2022-08-03T05:37:10;2.40;;;2.20;;
10637;SDS011;47007;49.252;8.904;2022-08-03T05:39:37;2.38;;;2.10;;
10637;SDS011;47007;49.252;8.904;2022-08-03T05:42:03;2.53;;;2.42;;
10637;SDS011;47007;49.252;8.904;2022-08-03T05:44:30;2.72;;;2.30;;
10637;SDS011;47007;49.252;8.904;2022-08-03T05:46:57;2.28;;;2.08;;
10637;SDS011;47007;49.252;8.904;2022-08-03T05:49:24;2.42;;;2.22;;
10637;SDS011;47007;49.252;8.904;2022-08-03T05:51:51;8.20;;;5.60;;
10637;SDS011;47007;49.252;8.904;2022-08-03T05:54:38;6.10;;;5.55;;
10637;SDS011;47007;49.252;8.904;2022-08-03T05:57:22;3.75;;;3.28;;
10637;SDS011;47007;49.252;8.904;2022-08-03T05:59:49;2.60;;;2.40;;
10637;SDS011;47007;49.252;8.904;2022-08-03T06:02:25;3.88;;;2.13;;
10637;SDS011;47007;49.252;8.904;2022-08-03T06:04:52;1.92;;;1.83;;
10637;SDS011;47007;49.252;8.904;2022-08-03T06:07:19;2.88;;;2.17;;
10637;SDS011;47007;49.252;8.904;2022-08-03T06:09:46;1.98;;;1.88;;
10637;SDS011;47007;49.252;8.904;2022-08-03T06:12:33;1.88;;;1.77;;
10637;SDS011;47007;49.252;8.904;2022-08-03T06:15:03;1.63;;;1.50;;
10637;SDS011;47007;49.252;8.904;2022-08-03T06:17:33;2.38;;;1.83;;
10637;SDS011;47007;49.252;8.904;2022-08-03T06:20:03;2.08;;;1.48;;
10637;SDS011;47007;49.252;8.904;2022-08-03T06:22:31;3.05;;;2.08;;
10637;SDS011;47007;49.252;8.904;2022-08-03T06:24:57;2.42;;;1.98;;
10637;SDS011;47007;49.252;8.904;2022-08-03T06:27:30;2.30;;;2.10;;
10637;SDS011;47007;49.252;8.904;2022-08-03T06:30:03;2.20;;;2.00;;
10637;SDS011;47007;49.252;8.904;2022-08-03T06:32:37;2.45;;;2.00;;
10637;SDS011;47007;49.252;8.904;2022-08-03T06:35:05;2.72;;;1.77;;
10637;SDS011;47007;49.252;8.904;2022-08-03T06:37:42;1.73;;;1.63;;
10637;SDS011;47007;49.252;8.904;2022-08-03T06:40:17;2.00;;;1.52;;
10637;SDS011;47007;49.252;8.904;2022-08-03T06:42:54;1.80;;;1.70;;
10637;SDS011;47007;49.252;8.904;2022-08-03T06:45:21;1.52;;;1.40;;
10637;SDS011;47007;49.252;8.904;2022-08-03T06:47:58;2.10;;;1.67;;
10637;SDS011;47007;49.252;8.904;2022-08-03T06:50:27;1.73;;;1.63;;
10637;SDS011;47007;49.252;8.904;2022-08-03T06:52:54;1.90;;;1.35;;
10637;SDS011;47007;49.252;8.904;2022-08-03T06:55:20;1.30;;;1.30;;
10637;SDS011;47007;49.252;8.904;2022-08-03T06:57:47;1.58;;;1.38;;
10637;SDS011;47007;49.252;8.904;2022-08-03T07:00:14;1.20;;;1.20;;
10637;SDS011;47007;49.252;8.904;2022-08-03T07:02:41;2.80;;;1.50;;
10637;SDS011;47007;49.252;8.904;2022-08-03T07:05:08;4.28;;;1.90;;
10637;SDS011;47007;49.252;8.904;2022-08-03T07:07:36;2.25;;;1.63;;
10637;SDS011;47007;49.252;8.904;2022-08-03T07:10:03;1.90;;;1.60;;
10637;SDS011;47007;49.252;8.904;2022-08-03T07:12:31;2.15;;;1.95;;
10637;SDS011;47007;49.252;8.904;2022-08-03T07:14:59;2.67;;;1.40;;
10637;SDS011;47007;49.252;8.904;2022-08-03T07:17:30;1.60;;;1.50;;
10637;SDS011;47007;49.252;8.904;2022-08-03T07:20:00;1.23;;;1.20;;
10637;SDS011;47007;49.252;8.904;2022-08-03T07:22:29;1.85;;;1.75;;
10637;SDS011;47007;49.252;8.904;2022-08-03T07:24:56;1.50;;;1.40;;
10637;SDS011;47007;49.252;8.904;2022-08-03T07:27:23;2.42;;;1.33;;
10637;SDS011;47007;49.252;8.904;2022-08-03T07:29:52;1.60;;;1.30;;
10637;SDS011;47007;49.252;8.904;2022-08-03T07:32:19;1.13;;;1.13;;
10637;SDS011;47007;49.252;8.904;2022-08-03T07:34:46;1.90;;;1.40;;
10637;SDS011;47007;49.252;8.904;2022-08-03T07:37:12;1.55;;;1.20;;
10637;SDS011;47007;49.252;8.904;2022-08-03T07:39:39;1.33;;;1.33;;
10637;SDS011;47007;49.252;8.904;2022-08-03T07:42:06;1.90;;;1.23;;
10637;SDS011;47007;49.252;8.904;2022-08-03T07:44:32;2.45;;;1.15;;
10637;SDS011;47007;49.252;8.904;2022-08-03T07:46:59;2.00;;;1.30;;
10637;SDS011;47007;49.252;8.904;2022-08-03T07:49:28;1.20;;;1.10;;
10637;SDS011;47007;49.252;8.904;2022-08-03T07:51:56;1.52;;;1.30;;
10637;SDS011;47007;49.252;8.904;2022-08-03T07:54:42;1.23;;;1.20;;
10637;SDS011;47007;49.252;8.904;2022-08-03T07:57:09;1.67;;;1.33;;
10637;SDS011;47007;49.252;8.904;2022-08-03T07:59:35;2.63;;;2.03;;
10637;SDS011;47007;49.252;8.904;2022-08-03T08:02:25;1.42;;;1.23;;
10637;SDS011;47007;49.252;8.904;2022-08-03T08:04:52;2.45;;;1.40;;
10637;SDS011;47007;49.252;8.904;2022-08-03T08:07:18;1.40;;;1.30;;
10637;SDS011;47007;49.252;8.904;2022-08-03T08:09:46;2.15;;;1.38;;
10637;SDS011;47007;49.252;8.904;2022-08-03T08:12:12;2.45;;;1.70;;
10637;SDS011;47007;49.252;8.904;2022-08-03T08:14:41;1.95;;;1.20;;
10637;SDS011;47007;49.252;8.904;2022-08-03T08:17:11;1.88;;;1.30;;
10637;SDS011;47007;49.252;8.904;2022-08-03T08:19:38;1.08;;;1.08;;
10637;SDS011;47007;49.252;8.904;2022-08-03T08:22:12;1.20;;;1.10;;
10637;SDS011;47007;49.252;8.904;2022-08-03T08:24:40;1.20;;;1.10;;
10637;SDS011;47007;49.252;8.904;2022-08-03T08:27:09;2.05;;;1.20;;
10637;SDS011;47007;49.252;8.904;2022-08-03T08:29:37;0.98;;;0.90;;
10637;SDS011;47007;49.252;8.904;2022-08-03T08:32:20;1.42;;;0.95;;
10637;SDS011;47007;49.252;8.904;2022-08-03T08:34:47;1.00;;;0.90;;
10637;SDS011;47007;49.252;8.904;2022-08-03T08:37:14;1.42;;;0.75;;
10637;SDS011;47007;49.252;8.904;2022-08-03T08:39:40;1.73;;;0.98;;
10637;SDS011;47007;49.252;8.904;2022-08-03T08:42:08;1.08;;;0.95;;
10637;SDS011;47007;49.252;8.904;2022-08-03T08:44:55;0.80;;;0.80;;
10637;SDS011;47007;49.252;8.904;2022-08-03T08:47:29;1.50;;;1.02;;
10637;SDS011;47007;49.252;8.904;2022-08-03T08:50:17;1.55;;;1.30;;
10637;SDS011;47007;49.252;8.904;2022-08-03T08:52:53;2.70;;;1.30;;
10637;SDS011;47007;49.252;8.904;2022-08-03T08:55:22;2.35;;;1.10;;
10637;SDS011;47007;49.252;8.904;2022-08-03T08:57:50;1.30;;;1.10;;
10637;SDS011;47007;49.252;8.904;2022-08-03T09:00:20;3.25;;;1.30;;
10637;SDS011;47007;49.252;8.904;2022-08-03T09:02:47;3.15;;;1.10;;
10637;SDS011;47007;49.252;8.904;2022-08-03T09:05:17;1.30;;;1.00;;
10637;SDS011;47007;49.252;8.904;2022-08-03T09:08:01;1.75;;;1.33;;
10637;SDS011;47007;49.252;8.904;2022-08-03T09:10:31;1.10;;;1.10;;
10637;SDS011;47007;49.252;8.904;2022-08-03T09:13:00;0.90;;;0.90;;
10637;SDS011;47007;49.252;8.904;2022-08-03T09:15:29;1.00;;;1.00;;
10637;SDS011;47007;49.252;8.904;2022-08-03T09:17:58;0.90;;;0.90;;
10637;SDS011;47007;49.252;8.904;2022-08-03T09:20:30;1.48;;;0.80;;
10637;SDS011;47007;49.252;8.904;2022-08-03T09:25:49;1.45;;;1.00;;
10637;SDS011;47007;49.252;8.904;2022-08-03T09:28:25;0.85;;;0.85;;
10637;SDS011;47007;49.252;8.904;2022-08-03T09:31:19;2.22;;;0.98;;
10637;SDS011;47007;49.252;8.904;2022-08-03T09:34:06;1.67;;;0.90;;
10637;SDS011;47007;49.252;8.904;2022-08-03T09:39:12;1.10;;;1.10;;
10637;SDS011;47007;49.252;8.904;2022-08-03T09:41:42;1.48;;;0.80;;
10637;SDS011;47007;49.252;8.904;2022-08-03T09:44:14;0.85;;;0.85;;
10637;SDS011;47007;49.252;8.904;2022-08-03T09:46:52;0.73;;;0.70;;
10637;SDS011;47007;49.252;8.904;2022-08-03T09:49:21;1.00;;;0.90;;
10637;SDS011;47007;49.252;8.904;2022-08-03T09:51:48;0.80;;;0.80;;
10637;SDS011;47007;49.252;8.904;2022-08-03T09:54:35;0.77;;;0.70;;
10637;SDS011;47007;49.252;8.904;2022-08-03T09:57:02;1.25;;;0.80;;
10637;SDS011;47007;49.252;8.904;2022-08-03T09:59:30;0.70;;;0.70;;
10637;SDS011;47007;49.252;8.904;2022-08-03T10:01:58;1.58;;;0.60;;
10637;SDS011;47007;49.252;8.904;2022-08-03T10:04:26;1.35;;;1.25;;
10637;SDS011;47007;49.252;8.904;2022-08-03T10:07:05;1.33;;;0.80;;
10637;SDS011;47007;49.252;8.904;2022-08-03T10:09:35;3.45;;;0.80;;
10637;SDS011;47007;49.252;8.904;2022-08-03T10:12:06;1.40;;;0.93;;
10637;SDS011;47007;49.252;8.904;2022-08-03T10:14:38;1.45;;;1.10;;
10637;SDS011;47007;49.252;8.904;2022-08-03T10:17:08;0.93;;;0.80;;
10637;SDS011;47007;49.252;8.904;2022-08-03T10:19:35;0.90;;;0.80;;
10637;SDS011;47007;49.252;8.904;2022-08-03T10:22:03;0.73;;;0.73;;
10637;SDS011;47007;49.252;8.904;2022-08-03T10:24:35;1.77;;;0.93;;
10637;SDS011;47007;49.252;8.904;2022-08-03T10:27:05;2.15;;;0.95;;
10637;SDS011;47007;49.252;8.904;2022-08-03T10:29:36;0.88;;;0.88;;
10637;SDS011;47007;49.252;8.904;2022-08-03T10:32:09;2.83;;;0.80;;
10637;SDS011;47007;49.252;8.904;2022-08-03T10:34:44;1.88;;;0.80;;
10637;SDS011;47007;49.252;8.904;2022-08-03T10:37:12;2.85;;;0.60;;
10637;SDS011;47007;49.252;8.904;2022-08-03T10:39:41;0.77;;;0.77;;
10637;SDS011;47007;49.252;8.904;2022-08-03T10:42:20;0.60;;;0.60;;
10637;SDS011;47007;49.252;8.904;2022-08-03T10:44:51;0.70;;;0.70;;
10637;SDS011;47007;49.252;8.904;2022-08-03T10:47:42;1.67;;;0.90;;
10637;SDS011;47007;49.252;8.904;2022-08-03T10:50:09;3.40;;;0.95;;
10637;SDS011;47007;49.252;8.904;2022-08-03T10:53:00;1.92;;;0.82;;
10637;SDS011;47007;49.252;8.904;2022-08-03T11:01:47;1.10;;;0.98;;
10637;SDS011;47007;49.252;8.904;2022-08-03T11:04:27;1.65;;;0.85;;
10637;SDS011;47007;49.252;8.904;2022-08-03T11:09:45;1.88;;;0.85;;
10637;SDS011;47007;49.252;8.904;2022-08-03T11:12:30;0.60;;;0.60;;
10637;SDS011;47007;49.252;8.904;2022-08-03T11:15:00;0.60;;;0.60;;
10637;SDS011;47007;49.252;8.904;2022-08-03T11:17:30;0.85;;;0.70;;
10637;SDS011;47007;49.252;8.904;2022-08-03T11:20:41;2.72;;;0.80;;
10637;SDS011;47007;49.252;8.904;2022-08-03T11:23:42;1.10;;;0.82;;
10637;SDS011;47007;49.252;8.904;2022-08-03T11:26:31;2.50;;;0.73;;
10637;SDS011;47007;49.252;8.904;2022-08-03T11:29:28;1.20;;;0.70;;
10637;SDS011;47007;49.252;8.904;2022-08-03T11:43:09;0.68;;;0.68;;
10637;SDS011;47007;49.252;8.904;2022-08-03T11:46:01;1.63;;;0.70;;
10637;SDS011;47007;49.252;8.904;2022-08-03T11:50:59;0.77;;;0.77;;
10637;SDS011;47007;49.252;8.904;2022-08-03T11:53:26;2.85;;;0.70;;
10637;SDS011;47007;49.252;8.904;2022-08-03T11:55:57;0.60;;;0.60;;
10637;SDS011;47007;49.252;8.904;2022-08-03T11:58:24;0.80;;;0.57;;
10637;SDS011;47007;49.252;8.904;2022-08-03T12:01:21;0.70;;;0.70;;
10637;SDS011;47007;49.252;8.904;2022-08-03T12:03:49;1.05;;;0.68;;
10637;SDS011;47007;49.252;8.904;2022-08-03T12:06:17;2.00;;;0.65;;
10637;SDS011;47007;49.252;8.904;2022-08-03T12:08:44;0.80;;;0.80;;
10637;SDS011;47007;49.252;8.904;2022-08-03T12:11:13;0.63;;;0.63;;
10637;SDS011;47007;49.252;8.904;2022-08-03T12:16:34;0.75;;;0.75;;
10637;SDS011;47007;49.252;8.904;2022-08-03T12:19:02;0.93;;;0.70;;
10637;SDS011;47007;49.252;8.904;2022-08-03T12:21:30;0.65;;;0.63;;
10637;SDS011;47007;49.252;8.904;2022-08-03T12:24:01;1.00;;;0.55;;
10637;SDS011;47007;49.252;8.904;2022-08-03T12:26:30;0.65;;;0.65;;
10637;SDS011;47007;49.252;8.904;2022-08-03T12:29:20;1.48;;;0.68;;
10637;SDS011;47007;49.252;8.904;2022-08-03T12:31:48;0.93;;;0.85;;
10637;SDS011;47007;49.252;8.904;2022-08-03T12:34:15;1.95;;;0.57;;
10637;SDS011;47007;49.252;8.904;2022-08-03T12:36:52;1.15;;;0.73;;
10637;SDS011;47007;49.252;8.904;2022-08-03T12:39:22;1.13;;;0.77;;
10637;SDS011;47007;49.252;8.904;2022-08-03T12:41:53;0.85;;;0.82;;
10637;SDS011;47007;49.252;8.904;2022-08-03T12:44:30;1.10;;;0.90;;
10637;SDS011;47007;49.252;8.904;2022-08-03T12:47:00;1.55;;;0.75;;
10637;SDS011;47007;49.252;8.904;2022-08-03T12:49:39;1.67;;;0.70;;
10637;SDS011;47007;49.252;8.904;2022-08-03T12:52:11;0.52;;;0.50;;
10637;SDS011;47007;49.252;8.904;2022-08-03T12:54:37;0.68;;;0.68;;
10637;SDS011;47007;49.252;8.904;2022-08-03T12:57:05;1.95;;;0.60;;
10637;SDS011;47007;49.252;8.904;2022-08-03T12:59:43;0.70;;;0.50;;
10637;SDS011;47007;49.252;8.904;2022-08-03T13:02:19;0.70;;;0.70;;
10637;SDS011;47007;49.252;8.904;2022-08-03T13:04:49;0.77;;;0.60;;
10637;SDS011;47007;49.252;8.904;2022-08-03T13:07:18;1.45;;;0.68;;
10637;SDS011;47007;49.252;8.904;2022-08-03T13:09:46;2.50;;;0.80;;
10637;SDS011;47007;49.252;8.904;2022-08-03T13:12:17;1.20;;;0.70;;
10637;SDS011;47007;49.252;8.904;2022-08-03T13:14:47;1.52;;;0.70;;
10637;SDS011;47007;49.252;8.904;2022-08-03T13:17:20;2.47;;;0.82;;
10637;SDS011;47007;49.252;8.904;2022-08-03T13:19:47;1.23;;;0.80;;
10637;SDS011;47007;49.252;8.904;2022-08-03T13:22:15;1.00;;;0.80;;
10637;SDS011;47007;49.252;8.904;2022-08-03T13:24:44;0.60;;;0.60;;
10637;SDS011;47007;49.252;8.904;2022-08-03T13:27:13;0.65;;;0.65;;
10637;SDS011;47007;49.252;8.904;2022-08-03T13:30:00;3.53;;;0.90;;
10637;SDS011;47007;49.252;8.904;2022-08-03T13:32:27;1.88;;;0.80;;
10637;SDS011;47007;49.252;8.904;2022-08-03T13:34:53;1.27;;;0.70;;
10637;SDS011;47007;49.252;8.904;2022-08-03T13:37:20;0.75;;;0.63;;
10637;SDS011;47007;49.252;8.904;2022-08-03T13:39:47;0.80;;;0.80;;
10637;SDS011;47007;49.252;8.904;2022-08-03T13:42:26;0.70;;;0.70;;
10637;SDS011;47007;49.252;8.904;2022-08-03T13:44:54;1.05;;;0.77;;
10637;SDS011;47007;49.252;8.904;2022-08-03T13:47:21;2.22;;;0.60;;
10637;SDS011;47007;49.252;8.904;2022-08-03T13:49:48;2.40;;;0.70;;
10637;SDS011;47007;49.252;8.904;2022-08-03T13:52:31;0.60;;;0.60;;
10637;SDS011;47007;49.252;8.904;2022-08-03T13:55:03;0.70;;;0.60;;
10637;SDS011;47007;49.252;8.904;2022-08-03T13:57:31;1.27;;;0.60;;
10637;SDS011;47007;49.252;8.904;2022-08-03T14:00:18;1.30;;;1.05;;
10637;SDS011;47007;49.252;8.904;2022-08-03T14:02:57;0.80;;;0.80;;
10637;SDS011;47007;49.252;8.904;2022-08-03T14:05:42;2.92;;;0.63;;
10637;SDS011;47007;49.252;8.904;2022-08-03T14:08:09;1.80;;;0.80;;
10637;SDS011;47007;49.252;8.904;2022-08-03T14:10:41;0.93;;;0.77;;
10637;SDS011;47007;49.252;8.904;2022-08-03T14:13:10;2.47;;;0.77;;
10637;SDS011;47007;49.252;8.904;2022-08-03T14:15:42;0.60;;;0.60;;
10637;SDS011;47007;49.252;8.904;2022-08-03T14:18:16;1.75;;;0.60;;
10637;SDS011;47007;49.252;8.904;2022-08-03T14:20:59;0.60;;;0.60;;
10637;SDS011;47007;49.252;8.904;2022-08-03T14:23:32;1.73;;;0.88;;
10637;SDS011;47007;49.252;8.904;2022-08-03T14:26:00;2.17;;;0.70;;
10637;SDS011;47007;49.252;8.904;2022-08-03T14:28:27;1.20;;;0.90;;
10637;SDS011;47007;49.252;8.904;2022-08-03T14:30:54;0.88;;;0.75;;
10637;SDS011;47007;49.252;8.904;2022-08-03T14:33:21;1.40;;;0.60;;
10637;SDS011;47007;49.252;8.904;2022-08-03T14:35:49;0.80;;;0.80;;
10637;SDS011;47007;49.252;8.904;2022-08-03T14:38:16;1.75;;;0.95;;
10637;SDS011;47007;49.252;8.904;2022-08-03T14:40:44;1.10;;;1.00;;
10637;SDS011;47007;49.252;8.904;2022-08-03T14:43:11;2.40;;;0.88;;
10637;SDS011;47007;49.252;8.904;2022-08-03T14:45:39;1.00;;;0.90;;
10637;SDS011;47007;49.252;8.904;2022-08-03T14:48:06;1.50;;;0.60;;
10637;SDS011;47007;49.252;8.904;2022-08-03T14:50:53;0.73;;;0.65;;
10637;SDS011;47007;49.252;8.904;2022-08-03T14:53:21;2.05;;;0.80;;
10637;SDS011;47007;49.252;8.904;2022-08-03T14:55:48;0.70;;;0.70;;
10637;SDS011;47007;49.252;8.904;2022-08-03T14:58:23;1.38;;;0.70;;
10637;SDS011;47007;49.252;8.904;2022-08-03T15:00:53;1.63;;;0.70;;
10637;SDS011;47007;49.252;8.904;2022-08-03T15:03:21;0.63;;;0.63;;
10637;SDS011;47007;49.252;8.904;2022-08-03T15:06:08;0.80;;;0.60;;
10637;SDS011;47007;49.252;8.904;2022-08-03T15:08:35;0.70;;;0.70;;
10637;SDS011;47007;49.252;8.904;2022-08-03T15:11:02;0.70;;;0.70;;
10637;SDS011;47007;49.252;8.904;2022-08-03T15:13:30;1.85;;;0.60;;
10637;SDS011;47007;49.252;8.904;2022-08-03T15:15:57;1.40;;;0.75;;
10637;SDS011;47007;49.252;8.904;2022-08-03T15:18:23;0.60;;;0.60;;
10637;SDS011;47007;49.252;8.904;2022-08-03T15:20:50;0.88;;;0.88;;
10637;SDS011;47007;49.252;8.904;2022-08-03T15:23:17;1.50;;;0.73;;
10637;SDS011;47007;49.252;8.904;2022-08-03T15:25:44;0.90;;;0.70;;
10637;SDS011;47007;49.252;8.904;2022-08-03T15:28:31;2.05;;;0.70;;
10637;SDS011;47007;49.252;8.904;2022-08-03T15:30:58;0.70;;;0.70;;
10637;SDS011;47007;49.252;8.904;2022-08-03T15:33:26;1.15;;;0.80;;
10637;SDS011;47007;49.252;8.904;2022-08-03T15:35:53;1.00;;;0.90;;
10637;SDS011;47007;49.252;8.904;2022-08-03T15:38:19;1.15;;;0.82;;
10637;SDS011;47007;49.252;8.904;2022-08-03T15:40:52;0.60;;;0.60;;
10637;SDS011;47007;49.252;8.904;2022-08-03T15:43:22;0.70;;;0.60;;
10637;SDS011;47007;49.252;8.904;2022-08-03T15:45:49;0.80;;;0.80;;
10637;SDS011;47007;49.252;8.904;2022-08-03T15:48:36;1.95;;;1.00;;
10637;SDS011;47007;49.252;8.904;2022-08-03T15:51:03;2.10;;;0.70;;
10637;SDS011;47007;49.252;8.904;2022-08-03T15:53:30;0.88;;;0.60;;
10637;SDS011;47007;49.252;8.904;2022-08-03T15:55:57;0.82;;;0.70;;
10637;SDS011;47007;49.252;8.904;2022-08-03T15:58:25;0.95;;;0.60;;
10637;SDS011;47007;49.252;8.904;2022-08-03T16:01:15;0.80;;;0.80;;